Time;durP1;ratioP1;P1;durP2;ratioP2;P2;SDS_P1;SDS_P2;PMS_P1;PMS_P2;Temp;Humidity;BMP_temperature;BMP_pressure;BME280_temperature;BME280_humidity;BME280_pressure;Samples;Min_cycle;Max_cycle;Signal;HPM_P1;HPM_P2
2022/06/20 00:00:01;;;;;;;10.83;9.03;;;24.40;75.60;;;;;;5058920;28;20432;-84
2022/06/20 00:02:45;;;;;;;10.40;9.40;;;24.30;77.00;;;;;;5034062;28;20442;-84
2022/06/20 00:05:19;;;;;;;11.00;9.90;;;24.40;77.90;;;;;;5051125;28;20449;-83
2022/06/20 00:07:56;;;;;;;12.87;10.47;;;24.40;78.70;;;;;;5048261;28;20439;-84
2022/06/20 00:10:47;;;;;;;11.10;10.00;;;24.30;79.10;;;;;;5049228;28;20888;-84
2022/06/20 00:13:34;;;;;;;10.50;9.40;;;24.30;79.60;;;;;;5038212;28;20473;-84
2022/06/20 00:16:02;;;;;;;10.97;9.60;;;24.40;79.60;;;;;;5057725;28;20847;-83
2022/06/20 00:18:30;;;;;;;10.43;9.23;;;24.50;79.70;;;;;;5059229;28;20476;-84
2022/06/20 00:20:58;;;;;;;9.60;8.80;;;24.30;80.90;;;;;;5060357;28;20462;-84
2022/06/20 00:26:07;;;;;;;12.30;11.07;;;24.20;81.70;;;;;;5060407;28;20504;-84
2022/06/20 00:28:36;;;;;;;10.40;9.60;;;24.40;81.50;;;;;;5060929;28;20462;-84
2022/06/20 00:31:04;;;;;;;11.50;10.30;;;24.40;81.00;;;;;;5060387;28;20446;-84
2022/06/20 00:33:36;;;;;;;12.30;9.67;;;24.50;81.90;;;;;;5062540;28;20476;-83
2022/06/20 00:36:06;;;;;;;11.20;10.10;;;24.40;81.80;;;;;;5068500;28;20450;-83
2022/06/20 00:38:42;;;;;;;10.40;9.40;;;24.40;81.60;;;;;;5066542;28;20450;-84
2022/06/20 00:41:29;;;;;;;10.73;9.53;;;24.40;81.90;;;;;;5061316;28;20452;-84
2022/06/20 00:44:17;;;;;;;11.73;10.10;;;24.40;82.60;;;;;;5064242;28;20471;-84
2022/06/20 00:46:54;;;;;;;10.70;9.60;;;24.00;83.70;;;;;;5071573;28;20526;-84
2022/06/20 00:49:25;;;;;;;11.90;10.90;;;24.00;85.00;;;;;;5063690;28;20457;-83
2022/06/20 00:51:56;;;;;;;11.50;10.50;;;23.90;85.50;;;;;;5065740;28;20451;-83
2022/06/20 00:54:28;;;;;;;13.13;10.80;;;24.00;86.40;;;;;;5073271;28;20469;-82
2022/06/20 00:56:59;;;;;;;11.83;10.50;;;24.00;86.30;;;;;;5073820;28;20461;-83
2022/06/20 00:59:32;;;;;;;10.57;9.50;;;23.90;87.10;;;;;;5065480;28;20445;-83
2022/06/20 01:02:00;;;;;;;13.47;10.23;;;23.80;88.20;;;;;;5065022;28;20452;-83
2022/06/20 01:04:34;;;;;;;10.87;9.77;;;23.80;89.10;;;;;;5063210;28;20505;-83
2022/06/20 01:07:06;;;;;;;14.60;12.47;;;23.80;90.70;;;;;;5058787;28;20883;-83
2022/06/20 01:09:38;;;;;;;24.40;17.70;;;23.80;96.00;;;;;;5053973;28;20482;-84
2022/06/20 01:12:11;;;;;;;18.33;16.30;;;23.30;99.90;;;;;;5048077;28;20445;-82
2022/06/20 01:14:39;;;;;;;20.93;16.57;;;22.80;99.90;;;;;;5053346;28;20473;-82
2022/06/20 01:17:11;;;;;;;20.63;17.73;;;22.50;99.90;;;;;;5054108;28;20567;-82
2022/06/20 01:19:49;;;;;;;21.40;18.90;;;22.40;99.90;;;;;;5056592;28;20454;-82
2022/06/20 01:22:32;;;;;;;22.00;19.67;;;22.10;99.90;;;;;;5051666;28;20468;-82
2022/06/20 01:25:20;;;;;;;21.80;19.70;;;22.00;99.90;;;;;;5051254;28;20452;-82
2022/06/20 01:27:51;;;;;;;20.07;18.13;;;21.90;99.90;;;;;;5048486;28;20455;-82
2022/06/20 01:30:20;;;;;;;24.10;20.20;;;21.80;99.90;;;;;;5049624;28;20458;-82
2022/06/20 01:32:47;;;;;;;24.70;20.83;;;21.70;99.90;;;;;;5048410;28;21042;-82
2022/06/20 01:37:23;;;;;;;25.77;23.10;;;21.70;99.90;;;;;;5051699;28;21152;-81
2022/06/20 01:38:04;;;;;;;21.70;19.40;;;21.70;99.90;;;;;;5047606;28;20902;-81
2022/06/20 01:40:31;;;;;;;25.63;22.37;;;21.60;99.90;;;;;;5049593;28;20480;-81
2022/06/20 01:42:59;;;;;;;22.07;19.87;;;21.60;99.90;;;;;;5050953;28;20471;-81
2022/06/20 01:48:13;;;;;;;23.67;21.43;;;21.50;99.90;;;;;;5055085;28;20490;-81
2022/06/20 01:50:42;;;;;;;23.87;21.47;;;21.40;99.90;;;;;;5042776;28;20459;-81
2022/06/20 01:53:11;;;;;;;24.60;22.10;;;21.50;99.90;;;;;;5047911;28;20478;-82
2022/06/20 01:55:38;;;;;;;25.23;22.60;;;21.30;99.90;;;;;;5051658;28;20956;-81
2022/06/20 01:58:11;;;;;;;26.77;23.97;;;21.20;99.90;;;;;;5064925;28;20440;-81
2022/06/20 02:00:39;;;;;;;24.03;21.63;;;21.30;99.90;;;;;;5069751;28;20452;-82
2022/06/20 02:03:09;;;;;;;29.13;22.10;;;21.30;99.90;;;;;;5059458;28;20478;-82
2022/06/20 02:05:37;;;;;;;28.10;25.10;;;21.30;99.90;;;;;;5059340;28;20473;-81
2022/06/20 02:08:06;;;;;;;27.23;24.43;;;21.30;99.90;;;;;;5059982;28;20485;-82
2022/06/20 02:10:40;;;;;;;28.90;25.53;;;21.40;99.90;;;;;;5060344;28;20449;-82
2022/06/20 02:13:10;;;;;;;28.37;25.50;;;21.40;99.90;;;;;;5064060;28;20479;-82
2022/06/20 02:15:39;;;;;;;24.10;21.70;;;21.50;99.90;;;;;;5063029;28;20454;-81
2022/06/20 02:18:08;;;;;;;26.13;23.30;;;21.50;99.90;;;;;;5063841;28;20440;-81
2022/06/20 02:20:45;;;;;;;26.03;23.23;;;21.50;99.90;;;;;;5051173;28;20448;-82
2022/06/20 02:23:14;;;;;;;25.27;22.77;;;21.60;99.90;;;;;;5056567;28;20472;-82
2022/06/20 02:25:43;;;;;;;28.20;25.00;;;21.60;99.90;;;;;;5053697;28;20808;-82
2022/06/20 02:28:16;;;;;;;28.07;23.00;;;21.60;99.90;;;;;;5056570;28;20606;-82
2022/06/20 02:30:43;;;;;;;23.03;20.87;;;21.60;99.90;;;;;;5057052;28;20455;-82
2022/06/20 02:33:15;;;;;;;26.90;21.97;;;21.70;99.90;;;;;;5054572;28;20464;-82
2022/06/20 02:35:42;;;;;;;23.03;20.93;;;21.70;99.90;;;;;;5057134;28;20457;-82
2022/06/20 02:38:10;;;;;;;23.93;21.63;;;21.70;99.90;;;;;;5056403;28;20452;-82
2022/06/20 02:40:41;;;;;;;20.33;17.77;;;21.70;99.90;;;;;;5055710;28;20526;-82
2022/06/20 02:43:16;;;;;;;22.33;19.73;;;21.60;99.90;;;;;;5053402;28;20553;-83
2022/06/20 02:45:45;;;;;;;28.27;20.70;;;21.40;99.90;;;;;;5047960;28;20452;-83
2022/06/20 02:48:14;;;;;;;24.57;18.37;;;21.20;99.90;;;;;;5057461;28;20495;-84
2022/06/20 02:50:47;;;;;;;15.57;14.37;;;21.00;99.90;;;;;;5061209;28;20525;-84
2022/06/20 02:53:18;;;;;;;17.63;14.80;;;20.80;99.90;;;;;;5060832;28;20466;-84
2022/06/20 02:55:46;;;;;;;12.97;11.63;;;20.60;99.90;;;;;;5062122;28;20453;-82
2022/06/20 02:58:19;;;;;;;13.50;11.80;;;20.40;99.90;;;;;;5064025;28;20440;-82
2022/06/20 03:00:51;;;;;;;18.60;13.30;;;20.20;99.90;;;;;;5063699;28;20926;-83
2022/06/20 03:03:23;;;;;;;21.57;16.50;;;20.20;99.90;;;;;;5064499;28;20476;-83
2022/06/20 03:05:50;;;;;;;15.27;13.77;;;20.10;99.90;;;;;;5062788;28;20448;-83
2022/06/20 03:08:17;;;;;;;22.83;15.17;;;20.20;99.90;;;;;;5062478;28;20481;-83
2022/06/20 03:10:47;;;;;;;16.23;14.53;;;20.10;99.90;;;;;;5062376;28;20460;-83
2022/06/20 03:13:17;;;;;;;25.37;17.13;;;20.20;99.90;;;;;;5062312;28;20469;-83
2022/06/20 03:15:45;;;;;;;15.37;13.77;;;20.20;99.90;;;;;;5063048;28;20453;-83
2022/06/20 03:18:14;;;;;;;17.17;15.50;;;20.20;99.90;;;;;;5062657;28;20446;-83
2022/06/20 03:20:41;;;;;;;17.60;13.60;;;20.20;99.90;;;;;;5060787;28;20455;-82
2022/06/20 03:23:16;;;;;;;17.57;15.63;;;20.20;99.90;;;;;;5060404;28;20476;-83
2022/06/20 03:25:42;;;;;;;16.87;14.27;;;20.00;99.90;;;;;;5062985;28;20459;-83
2022/06/20 03:28:13;;;;;;;16.47;14.30;;;19.90;99.90;;;;;;5060643;28;20483;-83
2022/06/20 03:30:41;;;;;;;21.60;15.07;;;19.90;99.90;;;;;;5060572;28;20453;-83
2022/06/20 03:33:13;;;;;;;17.07;15.00;;;19.90;99.90;;;;;;5084362;22;20948;-80
2022/06/20 03:35:43;;;;;;;18.63;15.67;;;19.70;99.90;;;;;;5058066;28;20456;-80
2022/06/20 03:38:11;;;;;;;22.93;18.60;;;19.70;99.90;;;;;;5039077;28;20446;-84
2022/06/20 03:40:39;;;;;;;18.97;16.80;;;19.60;99.90;;;;;;5043346;28;20449;-83
2022/06/20 03:43:07;;;;;;;22.67;17.63;;;19.60;99.90;;;;;;5059573;28;20534;-83
2022/06/20 03:45:42;;;;;;;20.47;18.17;;;19.70;99.90;;;;;;5040633;28;20898;-83
2022/06/20 03:48:15;;;;;;;20.77;17.57;;;19.80;99.90;;;;;;5039763;28;20485;-83
2022/06/20 03:50:48;;;;;;;21.90;17.63;;;19.90;99.90;;;;;;5049789;28;20456;-83
2022/06/20 03:53:21;;;;;;;17.83;16.20;;;19.80;99.90;;;;;;5039026;28;20489;-83
2022/06/20 03:55:55;;;;;;;16.30;14.67;;;19.60;99.90;;;;;;5059526;28;20449;-83
2022/06/20 03:58:31;;;;;;;18.13;16.13;;;19.60;99.90;;;;;;5056186;28;20444;-83
2022/06/20 04:01:03;;;;;;;17.97;16.07;;;19.40;99.90;;;;;;5018823;28;20465;-83
2022/06/20 04:03:35;;;;;;;17.40;15.70;;;19.40;99.90;;;;;;5025151;28;20506;-81
2022/06/20 04:06:10;;;;;;;18.70;17.10;;;19.30;99.90;;;;;;5059028;28;21094;-82
2022/06/20 04:11:35;;;;;;;19.47;17.37;;;19.40;99.90;;;;;;5039789;28;20455;-82
2022/06/20 04:14:08;;;;;;;18.00;16.17;;;19.30;99.90;;;;;;5058646;28;20471;-83
2022/06/20 04:16:40;;;;;;;23.97;19.53;;;19.30;99.90;;;;;;5056718;28;20491;-83
2022/06/20 04:19:15;;;;;;;21.27;19.10;;;19.40;99.90;;;;;;5038639;28;20462;-82
2022/06/20 04:21:46;;;;;;;23.20;18.33;;;19.50;99.90;;;;;;5041058;28;20578;-82
2022/06/20 04:24:19;;;;;;;23.17;20.30;;;19.50;99.90;;;;;;5058317;28;20499;-82
2022/06/20 04:26:53;;;;;;;21.63;19.33;;;19.60;99.90;;;;;;5055298;28;20946;-84
2022/06/20 04:29:26;;;;;;;20.17;18.17;;;19.60;99.90;;;;;;5037609;28;20489;-83
2022/06/20 04:31:58;;;;;;;21.93;19.33;;;19.80;99.90;;;;;;5047865;28;20453;-83
2022/06/20 04:34:33;;;;;;;20.67;18.67;;;19.90;99.90;;;;;;5051325;28;20482;-80
2022/06/20 04:37:05;;;;;;;20.47;18.40;;;19.90;99.90;;;;;;5044568;28;20456;-83
2022/06/20 04:39:39;;;;;;;19.87;17.87;;;19.90;99.90;;;;;;5050929;28;20512;-83
2022/06/20 04:42:14;;;;;;;21.83;19.50;;;19.80;99.90;;;;;;5036371;28;20456;-83
2022/06/20 04:44:47;;;;;;;21.20;18.57;;;19.70;99.90;;;;;;5042093;28;20833;-82
2022/06/20 04:47:27;;;;;;;21.07;18.30;;;19.60;99.90;;;;;;5054745;28;20451;-82
2022/06/20 04:49:56;;;;;;;20.60;18.50;;;19.50;99.90;;;;;;5035986;28;20468;-82
2022/06/20 04:52:27;;;;;;;22.37;20.20;;;19.50;99.90;;;;;;5036579;28;20453;-82
2022/06/20 04:54:55;;;;;;;23.07;20.57;;;19.60;99.90;;;;;;5048613;28;20496;-82
2022/06/20 04:57:24;;;;;;;27.10;20.93;;;19.60;99.90;;;;;;5056392;28;20453;-82
2022/06/20 04:59:51;;;;;;;23.63;21.23;;;19.60;99.90;;;;;;5046132;28;20458;-82
2022/06/20 05:02:22;;;;;;;23.70;21.17;;;19.70;99.90;;;;;;5036346;28;20447;-82
2022/06/20 05:04:52;;;;;;;21.27;18.70;;;19.90;99.90;;;;;;5016394;28;20470;-82
2022/06/20 05:07:25;;;;;;;22.87;20.77;;;19.90;99.90;;;;;;5017022;28;20458;-81
2022/06/20 05:09:58;;;;;;;20.70;18.53;;;19.90;99.90;;;;;;5016424;28;20455;-82
2022/06/20 05:12:34;;;;;;;21.87;19.70;;;19.90;99.90;;;;;;5016363;28;20438;-82
2022/06/20 05:15:08;;;;;;;21.60;19.50;;;19.90;99.90;;;;;;5016504;28;20450;-82
2022/06/20 05:17:37;;;;;;;20.13;18.33;;;19.90;99.90;;;;;;5016534;28;20479;-82
2022/06/20 05:20:09;;;;;;;18.60;16.90;;;19.90;99.90;;;;;;5051254;28;20451;-80
2022/06/20 05:22:49;;;;;;;18.53;16.20;;;19.90;99.90;;;;;;5055459;28;20455;-78
2022/06/20 05:25:21;;;;;;;20.13;18.00;;;20.10;99.90;;;;;;5036679;28;20462;-78
2022/06/20 05:27:53;;;;;;;19.43;17.60;;;20.20;99.90;;;;;;5035917;28;20611;-78
2022/06/20 05:30:23;;;;;;;18.30;16.53;;;20.40;99.90;;;;;;5054078;28;20461;-80
2022/06/20 05:32:54;;;;;;;19.37;17.30;;;20.50;99.90;;;;;;5055682;28;20440;-80
2022/06/20 05:35:25;;;;;;;17.27;15.77;;;20.60;99.90;;;;;;5037426;28;20796;-79
2022/06/20 05:37:59;;;;;;;19.73;17.97;;;20.70;99.90;;;;;;5036519;28;20501;-81
2022/06/20 05:40:29;;;;;;;19.03;17.03;;;20.70;99.90;;;;;;5055336;28;20453;-81
2022/06/20 05:42:57;;;;;;;17.10;15.50;;;20.70;99.90;;;;;;5059785;28;20466;-81
2022/06/20 05:45:26;;;;;;;18.30;16.50;;;20.80;99.90;;;;;;5027797;28;20456;-81
2022/06/20 05:47:56;;;;;;;17.57;15.87;;;20.90;99.90;;;;;;5056537;28;20482;-84
2022/06/20 05:50:40;;;;;;;19.30;16.90;;;20.90;99.90;;;;;;5062296;28;20463;-84
2022/06/20 05:53:18;;;;;;;20.87;18.57;;;21.00;99.90;;;;;;5043229;28;20510;-84
2022/06/20 05:55:47;;;;;;;24.33;19.13;;;21.00;99.90;;;;;;5043446;28;20443;-85
2022/06/20 05:58:19;;;;;;;19.37;17.73;;;21.00;99.90;;;;;;5041673;28;20968;-85
2022/06/20 06:00:47;;;;;;;21.23;18.70;;;21.00;99.90;;;;;;5045844;28;20853;-85
2022/06/20 06:03:17;;;;;;;20.23;18.10;;;21.00;99.90;;;;;;5059473;28;20474;-84
2022/06/20 06:05:48;;;;;;;21.13;18.93;;;21.00;99.90;;;;;;5061357;28;20458;-85
2022/06/20 06:08:23;;;;;;;21.57;19.37;;;20.80;99.90;;;;;;5060387;28;20481;-84
2022/06/20 06:10:56;;;;;;;23.00;20.90;;;20.80;99.90;;;;;;5044918;28;20449;-85
2022/06/20 06:13:27;;;;;;;22.57;20.37;;;20.90;99.90;;;;;;5041251;28;20483;-86
2022/06/20 06:18:50;;;;;;;24.20;21.07;;;21.20;99.90;;;;;;5037103;28;20426;-86
2022/06/20 06:21:18;;;;;;;23.63;19.37;;;21.30;99.90;;;;;;5037714;28;20998;-84
2022/06/20 06:23:48;;;;;;;21.47;19.27;;;21.50;99.90;;;;;;5038156;28;20482;-84
2022/06/20 06:33:08;;;;;;;21.10;19.07;;;21.80;99.90;;;;;;5033074;28;20482;-84
2022/06/20 06:35:43;;;;;;;22.20;18.90;;;21.80;99.90;;;;;;5031404;28;20453;-85
2022/06/20 06:38:16;;;;;;;19.80;16.20;;;21.90;99.90;;;;;;5029422;28;20460;-86
2022/06/20 06:40:48;;;;;;;17.83;13.50;;;21.90;99.90;;;;;;5047387;28;20452;-86
2022/06/20 06:43:19;;;;;;;17.17;15.17;;;21.90;99.90;;;;;;5060472;28;20476;-85
2022/06/20 06:45:48;;;;;;;17.37;15.43;;;21.80;99.90;;;;;;5055445;28;20450;-85
2022/06/20 06:48:19;;;;;;;18.53;16.60;;;22.00;99.90;;;;;;5038380;28;20484;-85
2022/06/20 06:50:49;;;;;;;17.60;15.90;;;22.10;99.90;;;;;;5039604;28;20456;-84
2022/06/20 06:53:22;;;;;;;17.33;15.60;;;22.00;99.90;;;;;;5049232;28;20472;-85
2022/06/20 06:56:00;;;;;;;19.63;16.03;;;22.20;99.90;;;;;;5043336;28;20452;-84
2022/06/20 06:58:35;;;;;;;17.90;16.07;;;22.40;99.90;;;;;;5040192;28;20439;-87
2022/06/20 07:01:09;;;;;;;15.37;14.03;;;22.50;99.90;;;;;;5051537;28;20436;-86
2022/06/20 07:03:40;;;;;;;17.37;15.07;;;22.50;99.90;;;;;;5061935;28;20502;-85
2022/06/20 07:06:26;;;;;;;14.33;13.00;;;22.40;99.90;;;;;;5056840;28;20824;-85
2022/06/20 07:08:59;;;;;;;15.57;14.13;;;22.30;99.90;;;;;;5056166;28;20489;-85
2022/06/20 07:11:27;;;;;;;14.33;13.03;;;22.10;99.90;;;;;;5056928;28;20445;-85
2022/06/20 07:14:00;;;;;;;15.03;13.70;;;22.20;99.90;;;;;;5057279;28;20498;-86
2022/06/20 07:16:30;;;;;;;17.47;15.87;;;22.30;99.90;;;;;;5057841;28;20458;-86
2022/06/20 07:18:59;;;;;;;14.70;13.30;;;22.10;99.90;;;;;;5058007;28;20788;-85
2022/06/20 07:21:28;;;;;;;16.37;14.83;;;22.00;99.90;;;;;;5057581;28;20453;-85
2022/06/20 07:23:58;;;;;;;16.23;14.40;;;22.10;99.90;;;;;;5061843;28;20479;-85
2022/06/20 07:26:31;;;;;;;18.03;14.03;;;22.00;99.90;;;;;;5057850;28;20462;-85
2022/06/20 07:29:04;;;;;;;17.43;15.70;;;21.90;99.90;;;;;;5057408;28;20921;-86
2022/06/20 07:31:35;;;;;;;16.80;15.00;;;21.90;99.90;;;;;;5057250;28;20448;-86
2022/06/20 07:34:11;;;;;;;18.10;16.33;;;21.90;99.90;;;;;;5056838;28;20926;-85
2022/06/20 07:36:43;;;;;;;16.83;15.10;;;21.80;99.90;;;;;;5056617;28;20471;-85
2022/06/20 07:39:16;;;;;;;16.60;14.80;;;21.80;99.90;;;;;;5055698;28;20451;-85
2022/06/20 07:41:48;;;;;;;16.10;14.10;;;22.00;99.90;;;;;;5055694;28;20815;-85
2022/06/20 07:44:21;;;;;;;17.27;15.50;;;21.90;99.90;;;;;;5056122;28;20476;-86
2022/06/20 07:46:52;;;;;;;13.63;12.30;;;21.90;99.90;;;;;;5056311;28;20832;-84
2022/06/20 07:49:25;;;;;;;18.10;14.80;;;21.90;99.90;;;;;;5056035;28;21026;-86
2022/06/20 07:51:56;;;;;;;16.87;14.33;;;22.10;99.90;;;;;;5055564;28;20456;-85
2022/06/20 07:54:28;;;;;;;14.93;13.53;;;22.10;99.90;;;;;;5055432;28;20919;-86
2022/06/20 07:57:01;;;;;;;15.90;14.57;;;22.30;99.90;;;;;;5056332;28;20534;-86
2022/06/20 07:59:33;;;;;;;15.30;13.90;;;22.30;99.90;;;;;;5056665;28;20815;-86
2022/06/20 08:02:07;;;;;;;16.57;15.17;;;22.40;99.90;;;;;;5054536;28;20458;-86
2022/06/20 08:04:37;;;;;;;14.47;12.97;;;22.60;99.90;;;;;;5056563;28;20472;-84
2022/06/20 08:07:09;;;;;;;15.40;11.80;;;22.70;99.90;;;;;;5056243;28;20451;-85
2022/06/20 08:09:41;;;;;;;13.10;12.03;;;22.70;99.90;;;;;;5056017;28;20495;-85
2022/06/20 08:12:17;;;;;;;12.80;11.50;;;22.80;99.90;;;;;;5063400;28;20455;-87
2022/06/20 08:14:51;;;;;;;10.70;9.70;;;22.90;99.90;;;;;;5057982;28;20468;-85
2022/06/20 08:17:18;;;;;;;10.40;9.50;;;23.00;99.90;;;;;;5056774;28;20515;-85
2022/06/20 08:19:46;;;;;;;10.60;9.47;;;23.10;99.90;;;;;;5056623;28;20547;-84
2022/06/20 08:22:17;;;;;;;10.73;9.73;;;23.10;99.90;;;;;;5056256;28;20462;-84
2022/06/20 08:24:49;;;;;;;9.37;8.77;;;23.20;99.90;;;;;;5055108;28;20463;-85
2022/06/20 08:27:29;;;;;;;10.03;9.27;;;23.30;99.90;;;;;;5054834;28;20433;-85
2022/06/20 08:30:04;;;;;;;10.43;9.60;;;23.40;99.90;;;;;;5054089;28;20483;-86
2022/06/20 08:32:55;;;;;;;9.60;8.80;;;23.50;99.90;;;;;;5055025;28;20650;-86
2022/06/20 08:35:29;;;;;;;10.93;10.03;;;23.60;99.90;;;;;;5055201;28;20977;-86
2022/06/20 08:38:00;;;;;;;10.73;7.93;;;23.80;99.90;;;;;;5054448;28;20961;-86
2022/06/20 08:40:56;;;;;;;9.70;8.70;;;23.90;99.90;;;;;;5054290;28;20437;-87
2022/06/20 08:43:53;;;;;;;10.40;9.43;;;24.00;99.90;;;;;;5054350;28;20493;-87
2022/06/20 08:47:02;;;;;;;9.93;8.90;;;24.00;99.90;;;;;;5050275;28;20498;-87
2022/06/20 08:50:01;;;;;;;11.50;10.47;;;24.10;99.90;;;;;;5054322;28;20485;-87
2022/06/20 08:52:59;;;;;;;9.47;8.50;;;24.30;99.90;;;;;;5036429;28;20457;-87
2022/06/20 08:55:57;;;;;;;12.40;10.17;;;24.30;99.90;;;;;;5055105;28;20459;-86
2022/06/20 08:59:00;;;;;;;11.97;10.97;;;24.50;99.90;;;;;;5038737;28;20464;-89
2022/06/20 09:05:36;;;;;;;10.23;9.37;;;24.70;99.90;;;;;;5054689;28;20473;-89
2022/06/20 09:08:44;;;;;;;9.77;8.97;;;24.90;99.90;;;;;;5054643;28;20875;-89
2022/06/20 09:11:43;;;;;;;11.80;10.60;;;24.90;99.90;;;;;;5037719;28;20490;-88
2022/06/20 09:14:31;;;;;;;11.70;10.50;;;25.20;99.90;;;;;;5054464;28;21124;-89
2022/06/20 09:17:12;;;;;;;9.83;8.57;;;25.30;99.90;;;;;;5053865;28;20459;-88
2022/06/20 09:20:03;;;;;;;10.13;9.23;;;25.20;99.90;;;;;;5053373;28;20505;-88
2022/06/20 09:23:03;;;;;;;10.20;9.00;;;25.30;99.90;;;;;;5059969;28;20482;-87
2022/06/20 09:25:43;;;;;;;10.20;9.20;;;25.50;99.90;;;;;;5053198;28;20449;-87
2022/06/20 09:28:30;;;;;;;9.27;8.37;;;25.70;99.90;;;;;;5069161;28;20436;-88
2022/06/20 09:31:02;;;;;;;10.13;9.10;;;25.80;99.90;;;;;;5066994;28;20487;-87
2022/06/20 09:34:05;;;;;;;10.10;8.90;;;25.90;99.90;;;;;;5058546;28;20564;-87
2022/06/20 09:57:53;;;;;;;9.73;8.93;;;27.10;99.90;;;;;;4898521;29;20449;-84
2022/06/20 10:00:21;;;;;;;11.53;10.73;;;27.40;99.90;;;;;;5031067;28;20450;-84
2022/06/20 10:02:58;;;;;;;11.23;10.13;;;27.20;99.50;;;;;;5042453;28;20448;-84
2022/06/20 10:05:37;;;;;;;9.27;8.10;;;27.20;99.90;;;;;;5054305;28;20491;-84
2022/06/20 10:08:12;;;;;;;8.23;7.63;;;27.10;98.10;;;;;;5053962;28;20451;-84
2022/06/20 10:10:53;;;;;;;10.50;9.80;;;27.20;97.10;;;;;;5052575;28;20438;-84
2022/06/20 10:13:28;;;;;;;9.83;8.93;;;27.40;97.60;;;;;;5053469;28;20488;-85
2022/06/20 10:16:06;;;;;;;9.53;8.73;;;27.70;99.30;;;;;;5041515;28;20466;-85
2022/06/20 10:18:43;;;;;;;8.83;8.13;;;27.90;98.90;;;;;;5039047;28;20452;-84
2022/06/20 10:21:16;;;;;;;11.07;10.00;;;28.10;96.10;;;;;;5048903;28;20487;-85
2022/06/20 10:24:02;;;;;;;10.93;9.97;;;28.20;97.70;;;;;;5049070;28;20457;-85
2022/06/20 10:26:47;;;;;;;10.30;9.30;;;28.20;96.10;;;;;;5033037;28;20996;-84
2022/06/20 10:29:23;;;;;;;10.37;8.73;;;28.30;96.60;;;;;;5034078;28;20455;-84
2022/06/20 10:32:00;;;;;;;8.63;7.83;;;28.30;97.70;;;;;;5048452;28;20452;-84
2022/06/20 10:34:41;;;;;;;8.23;7.43;;;28.20;94.80;;;;;;5055905;28;20503;-85
2022/06/20 10:37:22;;;;;;;10.50;9.67;;;28.30;94.40;;;;;;5058050;28;20448;-84
2022/06/20 10:39:57;;;;;;;8.17;7.57;;;28.20;93.80;;;;;;5058186;28;20575;-84
2022/06/20 10:42:35;;;;;;;10.57;7.50;;;28.10;94.40;;;;;;5038802;28;20797;-85
2022/06/20 10:45:21;;;;;;;8.30;6.97;;;28.00;94.80;;;;;;5035084;28;20478;-85
2022/06/20 10:48:06;;;;;;;6.87;6.33;;;28.00;93.20;;;;;;5034795;28;20480;-84
2022/06/20 10:50:49;;;;;;;7.00;6.20;;;27.80;93.40;;;;;;5034423;28;20449;-85
2022/06/20 10:53:22;;;;;;;6.40;5.83;;;27.60;93.30;;;;;;5034657;28;20453;-85
2022/06/20 10:55:56;;;;;;;9.73;7.07;;;27.20;92.10;;;;;;5034448;28;20478;-84
2022/06/20 10:58:36;;;;;;;6.97;5.60;;;27.10;92.60;;;;;;5034782;28;20449;-84
2022/06/20 11:01:11;;;;;;;5.90;5.50;;;27.10;91.80;;;;;;5034056;28;20842;-83
2022/06/20 11:04:02;;;;;;;6.20;5.27;;;26.80;92.40;;;;;;5034300;28;20453;-85
2022/06/20 11:06:48;;;;;;;5.60;5.20;;;27.10;92.30;;;;;;5034312;28;20471;-84
2022/06/20 11:09:24;;;;;;;7.50;5.03;;;27.50;90.80;;;;;;5035017;28;20820;-84
2022/06/20 11:12:00;;;;;;;5.57;4.97;;;27.70;90.90;;;;;;5036463;28;20452;-84
2022/06/20 11:14:33;;;;;;;7.47;5.07;;;27.90;89.80;;;;;;5034797;28;20460;-87
2022/06/20 11:17:17;;;;;;;8.57;7.83;;;28.00;87.10;;;;;;5034439;28;20456;-85
2022/06/20 11:19:51;;;;;;;5.37;4.73;;;27.90;87.40;;;;;;5034527;28;20482;-85
2022/06/20 11:22:35;;;;;;;5.53;4.17;;;27.80;86.60;;;;;;5034035;28;20456;-84
2022/06/20 11:25:15;;;;;;;4.77;4.27;;;27.90;86.50;;;;;;5034079;28;20485;-84
2022/06/20 11:28:03;;;;;;;6.00;5.57;;;27.80;84.40;;;;;;5034109;28;20463;-85
2022/06/20 11:30:38;;;;;;;6.07;4.13;;;27.80;85.60;;;;;;5033804;28;20447;-84
2022/06/20 11:34:00;;;;;;;6.13;4.00;;;27.50;85.20;;;;;;5033958;28;21002;-84
2022/06/20 11:36:18;;;;;;;5.57;5.10;;;26.90;85.90;;;;;;5033610;28;20477;-85
2022/06/20 11:39:05;;;;;;;5.17;4.77;;;26.70;87.20;;;;;;5033705;28;20457;-84
2022/06/20 11:41:38;;;;;;;4.20;3.90;;;26.90;87.40;;;;;;5031261;28;20493;-84
2022/06/20 11:44:22;;;;;;;6.93;4.30;;;27.20;88.10;;;;;;5032992;28;20457;-84
2022/06/20 11:47:09;;;;;;;5.90;4.63;;;27.80;86.30;;;;;;5033445;28;20454;-84
2022/06/20 11:49:53;;;;;;;5.20;4.67;;;27.90;86.00;;;;;;5002377;28;20475;-84
2022/06/20 11:52:27;;;;;;;8.77;5.77;;;27.60;88.00;;;;;;5033173;28;20441;-84
2022/06/20 11:55:05;;;;;;;12.20;7.07;;;28.00;88.50;;;;;;5033378;28;20481;-84
2022/06/20 11:57:38;;;;;;;9.23;7.80;;;28.10;90.10;;;;;;5033503;28;20496;-84
2022/06/20 12:00:12;;;;;;;7.63;6.97;;;27.70;90.60;;;;;;5033354;28;20492;-85
2022/06/20 12:02:50;;;;;;;9.23;7.70;;;27.30;91.90;;;;;;5033295;28;20462;-84
2022/06/20 12:05:32;;;;;;;8.23;7.30;;;27.30;92.10;;;;;;5033075;28;20473;-84
2022/06/20 12:08:07;;;;;;;5.90;5.30;;;27.50;92.20;;;;;;5033293;28;20802;-85
2022/06/20 12:10:42;;;;;;;5.30;4.90;;;27.10;90.80;;;;;;5032990;28;20460;-86
2022/06/20 12:13:24;;;;;;;5.97;5.50;;;26.80;90.60;;;;;;5033548;28;20438;-84
2022/06/20 12:15:57;;;;;;;5.33;5.03;;;26.60;90.60;;;;;;5040059;28;21016;-84
2022/06/20 12:23:18;;;;;;;6.50;4.83;;;26.50;90.40;;;;;;5038167;28;20488;-85
2022/06/20 12:24:17;;;;;;;4.97;4.13;;;26.10;90.70;;;;;;5032792;28;20535;-84
2022/06/20 12:26:45;;;;;;;3.83;3.63;;;25.80;91.00;;;;;;5032814;28;20475;-84
2022/06/20 12:29:16;;;;;;;4.67;4.00;;;25.40;91.30;;;;;;5032899;28;20454;-84
2022/06/20 12:31:45;;;;;;;3.53;3.23;;;25.40;92.00;;;;;;5032533;28;20459;-85
2022/06/20 12:34:26;;;;;;;3.70;3.40;;;25.40;91.70;;;;;;5032778;28;20467;-84
2022/06/20 12:36:59;;;;;;;3.57;3.03;;;25.20;91.60;;;;;;5032517;28;20452;-84
2022/06/20 12:39:31;;;;;;;4.27;3.97;;;25.00;92.10;;;;;;5032674;28;20453;-83
2022/06/20 12:42:11;;;;;;;3.70;3.40;;;25.00;92.30;;;;;;5032352;28;20455;-83
2022/06/20 12:44:54;;;;;;;4.80;3.40;;;25.10;92.20;;;;;;5032438;28;20829;-84
2022/06/20 12:47:45;;;;;;;5.40;4.50;;;25.60;92.40;;;;;;5032250;28;20460;-83
2022/06/20 12:50:21;;;;;;;6.20;5.73;;;26.50;93.20;;;;;;5032524;28;20457;-85
2022/06/20 12:52:58;;;;;;;5.60;5.10;;;27.20;92.50;;;;;;5032552;28;20455;-84
2022/06/20 12:55:37;;;;;;;5.87;5.43;;;27.80;91.30;;;;;;5032762;28;20611;-84
2022/06/20 12:58:27;;;;;;;7.27;6.13;;;28.10;91.40;;;;;;5032252;28;20459;-84
2022/06/20 13:01:13;;;;;;;6.23;5.03;;;28.90;90.10;;;;;;5032119;28;20495;-84
2022/06/20 13:04:27;;;;;;;6.83;5.60;;;29.10;87.90;;;;;;5032239;28;20506;-84
2022/06/20 13:07:24;;;;;;;8.00;5.43;;;29.20;86.70;;;;;;5032179;28;20458;-84
2022/06/20 13:16:23;;;;;;;8.80;6.30;;;29.90;84.70;;;;;;5030875;28;20948;-83
2022/06/20 13:19:14;;;;;;;6.97;6.10;;;30.10;84.30;;;;;;5032275;28;20449;-83
2022/06/20 13:21:45;;;;;;;6.87;6.23;;;30.10;84.60;;;;;;5031657;28;20497;-83
2022/06/20 13:24:38;;;;;;;7.77;6.33;;;29.90;83.20;;;;;;5032076;28;20457;-83
2022/06/20 13:27:17;;;;;;;6.60;6.10;;;29.40;85.10;;;;;;5031886;28;20546;-83
2022/06/20 13:29:56;;;;;;;7.97;6.83;;;29.90;86.10;;;;;;5031990;28;20823;-84
2022/06/20 13:32:29;;;;;;;8.37;7.47;;;30.10;83.50;;;;;;5031749;28;20466;-83
2022/06/20 13:35:02;;;;;;;7.83;7.13;;;30.20;83.20;;;;;;5031900;28;20489;-83
2022/06/20 13:37:52;;;;;;;10.23;7.43;;;30.10;83.70;;;;;;5031708;28;20787;-83
2022/06/20 13:40:49;;;;;;;8.07;7.47;;;29.50;84.80;;;;;;5027483;28;20847;-83
2022/06/20 13:43:34;;;;;;;7.70;6.90;;;28.50;86.20;;;;;;5019608;28;20468;-83
2022/06/20 13:46:22;;;;;;;8.23;7.43;;;26.60;90.20;;;;;;5031860;28;20480;-83
2022/06/20 13:48:54;;;;;;;8.13;7.30;;;25.80;92.40;;;;;;5031796;28;20458;-83
2022/06/20 13:51:26;;;;;;;9.27;8.47;;;25.40;93.20;;;;;;5031533;28;20458;-83
2022/06/20 13:54:03;;;;;;;8.60;7.90;;;24.90;94.90;;;;;;5031911;28;20449;-83
2022/06/20 13:56:34;;;;;;;8.90;8.17;;;24.70;95.80;;;;;;5031920;28;20563;-83
2022/06/20 13:59:15;;;;;;;8.73;7.90;;;24.30;96.40;;;;;;5031588;28;20995;-83
2022/06/20 14:01:55;;;;;;;8.67;7.87;;;24.00;97.20;;;;;;5031372;28;20866;-83
2022/06/20 14:04:23;;;;;;;8.73;7.90;;;23.70;98.20;;;;;;5031887;28;20449;-83
2022/06/20 14:06:55;;;;;;;7.60;6.80;;;23.70;99.10;;;;;;5033155;28;20796;-83